createdAt,value
2023-01-01T00:01:27.326Z,100449.09
2023-01-01T00:03:55.200Z,100452.66
2023-01-01T00:06:22.345Z,100444.19
2023-01-01T00:08:49.224Z,100446.22
2023-01-01T00:11:15.601Z,100438.88
2023-01-01T00:13:42.418Z,100430.69
2023-01-01T00:16:12.221Z,100432.94
2023-01-01T00:18:38.986Z,100444.09
2023-01-01T00:21:12.539Z,100442.78
2023-01-01T00:23:39.236Z,100438.84
2023-01-01T00:26:17.064Z,100441.09
2023-01-01T00:28:44.802Z,100447.63
2023-01-01T00:31:19.794Z,100445.47
2023-01-01T00:33:50.476Z,100437.41
2023-01-01T00:36:17.694Z,100438.28
2023-01-01T00:38:44.981Z,100435.88
2023-01-01T00:41:12.937Z,100433.75
2023-01-01T00:43:39.729Z,100436.00
2023-01-01T00:46:06.834Z,100441.69
2023-01-01T00:48:33.490Z,100440.34
2023-01-01T00:50:59.949Z,100435.88
2023-01-01T00:53:26.325Z,100438.84
2023-01-01T00:55:53.285Z,100434.31
2023-01-01T00:58:19.982Z,100430.41
2023-01-01T01:00:46.509Z,100440.84
2023-01-01T01:03:27.806Z,100433.81
2023-01-01T01:05:55.400Z,100438.00
2023-01-01T01:08:26.905Z,100432.44
2023-01-01T01:11:17.111Z,100428.97
2023-01-01T01:13:45.206Z,100418.66
2023-01-01T01:16:14.470Z,100425.06
2023-01-01T01:18:40.866Z,100424.69
2023-01-01T01:21:07.737Z,100432.84
2023-01-01T01:23:34.498Z,100427.38
2023-01-01T01:26:28.672Z,100428.09
2023-01-01T01:28:55.177Z,100421.00
2023-01-01T01:31:23.605Z,100425.94
2023-01-01T01:33:50.427Z,100436.28
2023-01-01T01:36:17.624Z,100440.31
2023-01-01T01:38:44.166Z,100438.75
2023-01-01T01:41:26.019Z,100436.13
2023-01-01T01:43:53.937Z,100439.47
2023-01-01T01:46:35.529Z,100440.34
2023-01-01T01:49:15.964Z,100448.72
2023-01-01T01:51:42.612Z,100447.09
2023-01-01T01:54:14.097Z,100451.78
2023-01-01T01:56:47.888Z,100452.53
2023-01-01T01:59:15.014Z,100455.28
2023-01-01T02:01:42.164Z,100461.81
2023-01-01T02:04:08.949Z,100456.47
2023-01-01T02:06:35.850Z,100461.38
2023-01-01T02:09:04.418Z,100464.53
2023-01-01T02:11:31.456Z,100460.28
2023-01-01T02:13:58.770Z,100455.75
2023-01-01T02:16:42.893Z,100462.88
2023-01-01T02:19:32.607Z,100466.34
2023-01-01T02:22:13.444Z,100470.56
2023-01-01T02:25:05.736Z,100476.13
2023-01-01T02:27:58.010Z,100470.91
2023-01-01T02:30:24.380Z,100478.09
2023-01-01T02:32:57.303Z,100475.03
2023-01-01T02:35:38.321Z,100476.53
2023-01-01T02:38:11.307Z,100477.63
2023-01-01T02:40:42.999Z,100479.28
2023-01-01T02:43:09.473Z,100469.59
2023-01-01T02:45:35.940Z,100483.97
2023-01-01T02:48:07.232Z,100490.41
2023-01-01T02:50:34.343Z,100484.16
2023-01-01T02:53:23.662Z,100491.59
2023-01-01T02:56:11.253Z,100485.56
2023-01-01T02:59:04.888Z,100489.19
2023-01-01T03:01:40.343Z,100494.72
2023-01-01T03:04:30.575Z,100491.00
2023-01-01T03:07:02.839Z,100493.47
2023-01-01T03:09:53.367Z,100490.34
2023-01-01T03:12:43.476Z,100488.88
2023-01-01T03:15:18.803Z,100489.13
2023-01-01T03:18:01.757Z,100491.69
2023-01-01T03:20:31.855Z,100489.69
2023-01-01T03:23:02.401Z,100494.47
2023-01-01T03:25:32.476Z,100499.75
2023-01-01T03:28:06.628Z,100502.13
2023-01-01T03:30:32.862Z,100499.63
2023-01-01T03:33:04.025Z,100512.06
2023-01-01T03:35:59.713Z,100506.31
2023-01-01T03:38:31.300Z,100503.56
2023-01-01T03:41:11.772Z,100509.75
2023-01-01T03:43:53.361Z,100515.81
2023-01-01T03:46:24.845Z,100510.78
2023-01-01T03:49:03.167Z,100510.59
2023-01-01T03:51:32.925Z,100514.88
2023-01-01T03:54:02.241Z,100514.75
2023-01-01T03:56:45.567Z,100525.47
2023-01-01T03:59:21.581Z,100517.13
2023-01-01T04:01:51.977Z,100516.47
2023-01-01T04:04:18.972Z,100513.00
2023-01-01T04:06:45.682Z,100515.34
2023-01-01T04:09:15.797Z,100513.00
2023-01-01T04:12:01.905Z,100519.75
2023-01-01T04:14:36.323Z,100502.06
2023-01-01T04:17:04.749Z,100510.59
2023-01-01T04:19:31.498Z,100509.75
2023-01-01T04:21:58.052Z,100516.75
2023-01-01T04:24:24.444Z,100518.59
2023-01-01T04:26:54.800Z,100521.75
2023-01-01T04:29:21.685Z,100517.28
2023-01-01T04:31:48.647Z,100511.94
2023-01-01T04:34:15.446Z,100512.25
2023-01-01T04:36:42.114Z,100506.25
2023-01-01T04:39:08.913Z,100507.41
2023-01-01T04:41:35.304Z,100513.41
2023-01-01T04:44:01.703Z,100508.59
2023-01-01T04:46:28.296Z,100514.91
2023-01-01T04:48:57.317Z,100516.94
2023-01-01T04:51:23.781Z,100520.59
2023-01-01T04:53:50.169Z,100518.56
2023-01-01T04:56:18.873Z,100515.41
2023-01-01T04:58:46.083Z,100515.44
2023-01-01T05:01:18.806Z,100515.44
2023-01-01T05:03:45.666Z,100520.63
2023-01-01T05:06:12.984Z,100531.66
2023-01-01T05:08:41.638Z,100528.16
2023-01-01T05:11:13.534Z,100536.81
2023-01-01T05:13:42.546Z,100546.16
2023-01-01T05:16:11.591Z,100541.97
2023-01-01T05:18:38.245Z,100548.66
2023-01-01T05:21:06.655Z,100553.84
2023-01-01T05:23:33.395Z,100556.00
2023-01-01T05:25:59.840Z,100551.00
2023-01-01T05:28:26.377Z,100556.03
2023-01-01T05:30:53.671Z,100569.50
2023-01-01T05:33:20.280Z,100558.84
2023-01-01T05:35:53.053Z,100559.16
2023-01-01T05:38:19.403Z,100560.66
2023-01-01T05:40:45.768Z,100561.66
2023-01-01T05:43:12.111Z,100564.34
2023-01-01T05:45:39.062Z,100566.66
2023-01-01T05:48:07.075Z,100564.34
2023-01-01T05:50:33.478Z,100560.81
2023-01-01T05:52:59.841Z,100557.28
2023-01-01T05:55:26.209Z,100556.31
2023-01-01T05:57:52.856Z,100552.75
2023-01-01T06:00:19.324Z,100565.34
2023-01-01T06:02:45.718Z,100568.53
2023-01-01T06:05:12.164Z,100566.84
2023-01-01T06:07:42.052Z,100572.13
2023-01-01T06:10:11.170Z,100577.31
2023-01-01T06:12:37.517Z,100576.56
2023-01-01T06:15:04.168Z,100577.72
2023-01-01T06:17:30.546Z,100575.28
2023-01-01T06:19:56.902Z,100582.47
2023-01-01T06:22:23.239Z,100577.78
2023-01-01T06:24:49.579Z,100582.09
2023-01-01T06:27:15.906Z,100582.09
2023-01-01T06:29:42.239Z,100575.78
2023-01-01T06:32:08.640Z,100585.31
2023-01-01T06:34:35.010Z,100588.47
2023-01-01T06:37:06.492Z,100592.97
2023-01-01T06:39:33.490Z,100603.13
2023-01-01T06:41:59.906Z,100612.28
2023-01-01T06:44:26.249Z,100609.50
2023-01-01T06:46:52.782Z,100606.38
2023-01-01T06:49:19.177Z,100612.16
2023-01-01T06:51:45.524Z,100615.84
2023-01-01T06:54:12.091Z,100609.38
2023-01-01T06:56:38.632Z,100624.22
2023-01-01T06:59:05.087Z,100622.41
2023-01-01T07:01:33.231Z,100624.41
2023-01-01T07:04:01.794Z,100633.06
2023-01-01T07:06:29.476Z,100633.22
2023-01-01T07:08:56.393Z,100637.06
2023-01-01T07:11:22.957Z,100632.06
2023-01-01T07:13:49.331Z,100628.38
2023-01-01T07:16:15.798Z,100626.38
2023-01-01T07:18:42.523Z,100623.91
2023-01-01T07:21:34.578Z,100630.22
2023-01-01T07:24:02.854Z,100632.53
2023-01-01T07:26:30.608Z,100643.03
2023-01-01T07:29:04.589Z,100647.16
2023-01-01T07:31:34.170Z,100650.47
2023-01-01T07:34:00.605Z,100658.53
2023-01-01T07:36:27.034Z,100671.22
2023-01-01T07:38:53.385Z,100673.19
2023-01-01T07:41:19.720Z,100675.41
2023-01-01T07:43:46.103Z,100680.75
2023-01-01T07:46:13.043Z,100690.09
2023-01-01T07:48:40.283Z,100679.88
2023-01-01T07:51:06.783Z,100691.41
2023-01-01T07:53:33.308Z,100692.94
2023-01-01T07:55:59.685Z,100699.78
2023-01-01T07:58:26.223Z,100697.09
2023-01-01T08:00:52.627Z,100694.75
2023-01-01T08:03:19.047Z,100679.94
2023-01-01T08:05:45.470Z,100668.25
2023-01-01T08:08:11.862Z,100657.78
2023-01-01T08:10:38.489Z,100675.63
2023-01-01T08:13:06.773Z,100675.09
2023-01-01T08:15:33.888Z,100686.13
2023-01-01T08:18:02.838Z,100689.78
2023-01-01T08:20:30.669Z,100682.25
2023-01-01T08:23:01.449Z,100693.50
2023-01-01T08:25:31.124Z,100694.09
2023-01-01T08:27:57.514Z,100694.75
2023-01-01T08:30:24.022Z,100694.03
2023-01-01T08:32:50.422Z,100697.59
2023-01-01T08:35:16.795Z,100707.06
2023-01-01T08:37:46.186Z,100714.09
2023-01-01T08:40:13.315Z,100712.31
2023-01-01T08:42:39.993Z,100716.31
2023-01-01T08:45:07.247Z,100714.84
2023-01-01T08:47:33.653Z,100723.00
2023-01-01T08:49:59.985Z,100722.53
2023-01-01T08:52:26.329Z,100729.72
2023-01-01T08:54:52.693Z,100721.19
2023-01-01T08:57:19.099Z,100715.69
2023-01-01T08:59:45.509Z,100727.69
2023-01-01T09:02:12.317Z,100722.97
2023-01-01T09:04:38.795Z,100726.25
2023-01-01T09:07:05.229Z,100728.56
2023-01-01T09:09:32.015Z,100737.38
2023-01-01T09:12:01.673Z,100747.88
2023-01-01T09:14:28.061Z,100748.09
2023-01-01T09:16:54.402Z,100745.94
2023-01-01T09:19:20.816Z,100756.06
2023-01-01T09:21:47.171Z,100753.78
2023-01-01T09:24:13.546Z,100762.50
2023-01-01T09:26:39.939Z,100773.13
2023-01-01T09:29:06.296Z,100777.72
2023-01-01T09:31:32.728Z,100763.84
2023-01-01T09:34:01.971Z,100767.84
2023-01-01T09:36:30.645Z,100758.53
2023-01-01T09:38:57.687Z,100762.91
2023-01-01T09:41:43.869Z,100755.41
2023-01-01T09:44:27.743Z,100751.97
2023-01-01T09:46:54.638Z,100757.78
2023-01-01T09:49:34.510Z,100750.19
2023-01-01T09:52:05.184Z,100760.88
2023-01-01T09:54:35.364Z,100762.97
2023-01-01T09:57:04.082Z,100758.72
2023-01-01T09:59:30.627Z,100748.44
2023-01-01T10:02:15.809Z,100739.31
2023-01-01T10:04:58.179Z,100738.69
2023-01-01T10:07:56.510Z,100738.41
2023-01-01T10:10:50.047Z,100740.94
2023-01-01T10:13:38.267Z,100740.34
2023-01-01T10:16:11.710Z,100739.66
2023-01-01T10:18:38.925Z,100750.91
2023-01-01T10:21:14.764Z,100745.09
2023-01-01T10:24:03.380Z,100748.69
2023-01-01T10:26:31.659Z,100747.72
2023-01-01T10:29:03.500Z,100741.31
2023-01-01T10:31:39.006Z,100743.34
2023-01-01T10:34:20.224Z,100743.59
2023-01-01T10:36:46.806Z,100737.91
2023-01-01T10:39:15.724Z,100750.16
2023-01-01T10:41:42.705Z,100745.06
2023-01-01T10:44:10.175Z,100744.44
2023-01-01T10:46:37.427Z,100732.81
2023-01-01T10:49:05.699Z,100731.28
2023-01-01T10:51:32.161Z,100728.66
2023-01-01T10:53:58.550Z,100732.94
2023-01-01T10:56:25.366Z,100725.69
2023-01-01T10:58:56.798Z,100728.66
2023-01-01T11:01:26.374Z,100729.50
2023-01-01T11:03:57.054Z,100733.06
2023-01-01T11:06:26.510Z,100729.03
2023-01-01T11:08:55.278Z,100737.59
2023-01-01T11:11:26.898Z,100724.72
2023-01-01T11:13:54.946Z,100718.09
2023-01-01T11:16:21.816Z,100713.19
2023-01-01T11:18:49.453Z,100705.31
2023-01-01T11:21:23.010Z,100687.13
2023-01-01T11:23:52.640Z,100682.44
2023-01-01T11:26:21.668Z,100689.13
2023-01-01T11:29:17.271Z,100683.97
2023-01-01T11:31:45.901Z,100684.09
2023-01-01T11:34:27.349Z,100673.00
2023-01-01T11:37:15.330Z,100666.47
2023-01-01T11:39:43.342Z,100665.94
2023-01-01T11:42:20.486Z,100673.00
2023-01-01T11:44:55.492Z,100666.09
2023-01-01T11:47:29.265Z,100661.56
2023-01-01T11:50:13.853Z,100673.59
2023-01-01T11:52:44.616Z,100665.25
2023-01-01T11:55:37.660Z,100662.25
2023-01-01T11:58:19.763Z,100670.75
2023-01-01T12:00:47.857Z,100681.81
2023-01-01T12:03:17.199Z,100683.94
2023-01-01T12:06:07.691Z,100683.72
2023-01-01T12:08:38.030Z,100677.88
2023-01-01T12:11:24.053Z,100685.38
2023-01-01T12:13:56.180Z,100681.69
2023-01-01T12:16:43.010Z,100693.31
2023-01-01T12:19:20.720Z,100688.66
2023-01-01T12:21:52.850Z,100681.03
2023-01-01T12:24:19.642Z,100689.31
2023-01-01T12:27:06.747Z,100682.41
2023-01-01T12:29:48.952Z,100681.94
2023-01-01T12:32:43.724Z,100686.34
2023-01-01T12:35:18.138Z,100692.53
2023-01-01T12:37:56.784Z,100693.38
2023-01-01T12:40:51.552Z,100689.22
2023-01-01T12:43:27.547Z,100687.53
2023-01-01T12:46:28.051Z,100684.91
2023-01-01T12:49:04.353Z,100673.47
2023-01-01T12:51:45.615Z,100666.31
2023-01-01T12:54:27.403Z,100663.53
2023-01-01T12:57:19.974Z,100670.72
2023-01-01T12:59:48.467Z,100665.19
2023-01-01T13:02:21.666Z,100673.31
2023-01-01T13:04:50.285Z,100666.75
2023-01-01T13:07:22.742Z,100665.66
2023-01-01T13:09:49.622Z,100670.56
2023-01-01T13:12:18.964Z,100667.91
2023-01-01T13:14:47.133Z,100672.31
2023-01-01T13:17:25.348Z,100671.84
2023-01-01T13:19:59.380Z,100672.69
2023-01-01T13:22:25.589Z,100670.38
2023-01-01T13:25:22.342Z,100667.50
2023-01-01T13:27:58.041Z,100668.69
2023-01-01T13:30:37.048Z,100671.75
2023-01-01T13:33:12.621Z,100669.06
2023-01-01T13:35:39.072Z,100673.66
2023-01-01T13:38:43.957Z,100668.47
2023-01-01T13:41:29.876Z,100671.22
2023-01-01T13:43:59.149Z,100670.69
2023-01-01T13:46:43.919Z,100679.44
2023-01-01T13:49:28.792Z,100673.19
2023-01-01T13:52:13.942Z,100674.25
2023-01-01T13:55:15.747Z,100680.91
2023-01-01T13:58:19.959Z,100674.31
2023-01-01T14:01:14.720Z,100682.41
2023-01-01T14:03:45.829Z,100672.41
2023-01-01T14:06:38.519Z,100665.88
2023-01-01T14:09:15.507Z,100658.00
2023-01-01T14:11:41.987Z,100670.16
2023-01-01T14:14:28.562Z,100672.06
2023-01-01T14:17:05.839Z,100670.69
2023-01-01T14:19:32.493Z,100694.56
2023-01-01T14:21:58.962Z,100692.81
2023-01-01T14:24:26.213Z,100686.22
2023-01-01T14:26:54.800Z,100690.41
2023-01-01T14:29:27.508Z,100682.56
2023-01-01T14:31:54.418Z,100679.97
2023-01-01T14:34:25.029Z,100691.03
2023-01-01T14:36:57.188Z,100695.44
2023-01-01T14:39:30.461Z,100689.88
2023-01-01T14:42:02.730Z,100687.63
2023-01-01T14:44:40.396Z,100685.38
2023-01-01T14:47:21.372Z,100685.84
2023-01-01T14:49:48.267Z,100682.16
2023-01-01T14:52:35.539Z,100683.38
2023-01-01T14:55:03.911Z,100684.56
2023-01-01T14:57:32.449Z,100690.97
2023-01-01T14:59:58.960Z,100690.97
2023-01-01T15:02:30.442Z,100685.63
2023-01-01T15:04:58.047Z,100682.75
2023-01-01T15:07:25.568Z,100686.59
2023-01-01T15:09:54.024Z,100689.31
2023-01-01T15:12:21.374Z,100683.97
2023-01-01T15:14:49.312Z,100678.97
2023-01-01T15:17:17.519Z,100679.31
2023-01-01T15:19:46.355Z,100679.09
2023-01-01T15:22:21.475Z,100674.94
2023-01-01T15:24:48.825Z,100678.47
2023-01-01T15:27:36.008Z,100683.69
2023-01-01T15:30:09.856Z,100694.28
2023-01-01T15:32:39.807Z,100686.09
2023-01-01T15:35:17.807Z,100688.22
2023-01-01T15:37:49.415Z,100683.00
2023-01-01T15:40:15.646Z,100674.56
2023-01-01T15:42:48.678Z,100673.00
2023-01-01T15:45:17.911Z,100672.78
2023-01-01T15:47:44.559Z,100672.41
2023-01-01T15:50:20.603Z,100672.06
2023-01-01T15:52:55.040Z,100668.13
2023-01-01T15:55:22.021Z,100666.56
2023-01-01T15:57:49.512Z,100677.16
2023-01-01T16:00:21.550Z,100673.47
2023-01-01T16:02:50.512Z,100666.34
2023-01-01T16:05:20.750Z,100676.81
2023-01-01T16:07:47.479Z,100667.28
2023-01-01T16:10:15.480Z,100667.19
2023-01-01T16:12:41.861Z,100671.69
2023-01-01T16:15:14.346Z,100673.94
2023-01-01T16:17:40.973Z,100660.38
2023-01-01T16:20:07.735Z,100656.84
2023-01-01T16:22:36.798Z,100655.56
2023-01-01T16:25:12.368Z,100661.00
2023-01-01T16:27:38.712Z,100656.44
2023-01-01T16:30:05.581Z,100659.66
2023-01-01T16:32:31.945Z,100656.31
2023-01-01T16:34:58.279Z,100644.91
2023-01-01T16:37:24.680Z,100641.03
2023-01-01T16:39:51.073Z,100641.00
2023-01-01T16:42:17.709Z,100648.84
2023-01-01T16:44:44.432Z,100656.31
2023-01-01T16:47:10.819Z,100650.06
2023-01-01T16:49:37.197Z,100652.16
2023-01-01T16:52:03.582Z,100653.38
2023-01-01T16:54:29.963Z,100640.47
2023-01-01T16:56:56.300Z,100642.81
2023-01-01T16:59:24.131Z,100634.53
2023-01-01T17:01:50.604Z,100640.88
2023-01-01T17:04:17.038Z,100632.41
2023-01-01T17:06:43.401Z,100628.59
2023-01-01T17:09:09.799Z,100621.28
2023-01-01T17:11:36.341Z,100620.25
2023-01-01T17:14:02.738Z,100614.06
2023-01-01T17:16:34.659Z,100607.63
2023-01-01T17:19:20.616Z,100605.00
2023-01-01T17:21:47.532Z,100599.28
2023-01-01T17:24:18.647Z,100599.41
2023-01-01T17:26:45.372Z,100592.03
2023-01-01T17:29:11.919Z,100582.53
2023-01-01T17:31:38.396Z,100598.88
2023-01-01T17:34:04.746Z,100604.09
2023-01-01T17:36:31.178Z,100605.19
2023-01-01T17:38:57.632Z,100614.94
2023-01-01T17:41:24.052Z,100602.59
2023-01-01T17:43:51.531Z,100602.06
2023-01-01T17:46:20.778Z,100601.25
2023-01-01T17:48:47.555Z,100601.78
2023-01-01T17:51:15.532Z,100599.72
2023-01-01T17:53:42.019Z,100592.03
2023-01-01T17:56:13.536Z,100590.25
2023-01-01T17:58:41.064Z,100598.44
2023-01-01T18:01:10.279Z,100594.03
2023-01-01T18:03:37.480Z,100586.66
2023-01-01T18:06:04.274Z,100581.91
2023-01-01T18:08:32.848Z,100570.56
2023-01-01T18:10:59.848Z,100556.94
2023-01-01T18:13:27.100Z,100564.63
2023-01-01T18:15:53.613Z,100560.03
2023-01-01T18:18:20.003Z,100568.06
2023-01-01T18:20:47.706Z,100569.75
2023-01-01T18:23:14.247Z,100572.81
2023-01-01T18:25:40.666Z,100566.78
2023-01-01T18:28:10.163Z,100556.59
2023-01-01T18:30:36.616Z,100558.94
2023-01-01T18:33:03.008Z,100564.97
2023-01-01T18:35:29.389Z,100566.34
2023-01-01T18:37:56.909Z,100561.78
2023-01-01T18:40:23.805Z,100560.59
2023-01-01T18:42:56.349Z,100552.06
2023-01-01T18:45:23.664Z,100552.16
2023-01-01T18:47:50.397Z,100560.84
2023-01-01T18:50:25.606Z,100547.78
2023-01-01T18:53:11.604Z,100531.41
2023-01-01T18:55:38.211Z,100525.81
2023-01-01T18:58:24.805Z,100541.13
2023-01-01T19:00:53.680Z,100525.72
2023-01-01T19:03:28.122Z,100522.75
2023-01-01T19:05:56.031Z,100518.56
2023-01-01T19:08:23.211Z,100522.25
2023-01-01T19:10:49.475Z,100520.25
2023-01-01T19:13:28.424Z,100507.53
2023-01-01T19:16:02.665Z,100510.63
2023-01-01T19:18:31.300Z,100510.81
2023-01-01T19:21:17.174Z,100507.47
2023-01-01T19:23:53.525Z,100501.78
2023-01-01T19:26:25.045Z,100503.34
2023-01-01T19:28:55.333Z,100510.72
2023-01-01T19:31:22.087Z,100507.56
2023-01-01T19:33:48.678Z,100491.47
2023-01-01T19:36:15.077Z,100491.66
2023-01-01T19:38:41.544Z,100494.31
2023-01-01T19:41:07.989Z,100490.31
2023-01-01T19:43:34.421Z,100490.66
2023-01-01T19:46:00.780Z,100495.00
2023-01-01T19:48:27.174Z,100489.59
2023-01-01T19:50:53.528Z,100484.97
2023-01-01T19:53:19.934Z,100488.16
2023-01-01T19:55:46.286Z,100499.66
2023-01-01T19:58:13.622Z,100490.22
2023-01-01T20:00:40.119Z,100492.09
2023-01-01T20:03:42.803Z,100495.75
2023-01-01T20:05:52.824Z,100488.91
2023-01-01T20:08:19.154Z,100493.16
2023-01-01T20:10:45.518Z,100498.38
2023-01-01T20:13:11.869Z,100470.78
2023-01-01T20:15:43.146Z,100474.94
2023-01-01T20:18:12.769Z,100477.50
2023-01-01T20:20:59.129Z,100478.69
2023-01-01T20:23:25.577Z,100476.78
2023-01-01T20:25:51.936Z,100483.69
2023-01-01T20:28:36.828Z,100493.59
2023-01-01T20:31:03.192Z,100482.13
2023-01-01T20:33:29.566Z,100482.63
2023-01-01T20:36:14.460Z,100474.78
2023-01-01T20:38:40.814Z,100477.06
2023-01-01T20:41:25.072Z,100455.53
2023-01-01T20:43:56.462Z,100460.59
2023-01-01T20:46:25.035Z,100458.09
2023-01-01T20:48:54.131Z,100470.72
2023-01-01T20:51:20.529Z,100476.69
2023-01-01T20:53:46.878Z,100484.56
2023-01-01T20:56:13.357Z,100486.66
2023-01-01T20:58:45.980Z,100481.16
2023-01-01T21:01:15.316Z,100491.59
2023-01-01T21:03:41.762Z,100477.84
2023-01-01T21:06:08.178Z,100493.44
2023-01-01T21:08:34.703Z,100483.81
2023-01-01T21:11:01.035Z,100480.75
2023-01-01T21:13:27.466Z,100475.78
2023-01-01T21:15:54.938Z,100484.50
2023-01-01T21:18:21.352Z,100485.75
2023-01-01T21:20:48.701Z,100488.88
2023-01-01T21:23:25.616Z,100486.44
2023-01-01T21:25:52.451Z,100490.69
2023-01-01T21:28:19.209Z,100480.69
2023-01-01T21:30:51.124Z,100480.34
2023-01-01T21:33:28.919Z,100482.34
2023-01-01T21:35:55.446Z,100486.63
2023-01-01T21:38:24.821Z,100486.34
2023-01-01T21:40:53.572Z,100494.72
2023-01-01T21:43:40.312Z,100495.38
2023-01-01T21:46:06.626Z,100482.91
2023-01-01T21:48:38.365Z,100484.03
2023-01-01T21:51:24.767Z,100490.41
2023-01-01T21:53:51.501Z,100500.88
2023-01-01T21:56:32.217Z,100486.63
2023-01-01T21:59:27.751Z,100482.59
2023-01-01T22:02:06.820Z,100490.28
2023-01-01T22:04:39.781Z,100489.44
2023-01-01T22:10:24.955Z,100479.53
2023-01-01T22:12:56.980Z,100486.59
2023-01-01T22:15:29.698Z,100481.84
2023-01-01T22:17:58.695Z,100479.88
2023-01-01T22:20:25.123Z,100493.34
2023-01-01T22:22:51.508Z,100492.75
2023-01-01T22:25:22.951Z,100481.25
2023-01-01T22:27:49.318Z,100483.34
2023-01-01T22:30:18.746Z,100482.91
2023-01-01T22:32:52.124Z,100482.91
2023-01-01T22:35:21.788Z,100499.63
2023-01-01T22:37:54.036Z,100492.22
2023-01-01T22:40:30.898Z,100475.84
2023-01-01T22:43:01.147Z,100478.88
2023-01-01T22:45:27.919Z,100492.59
2023-01-01T22:47:56.559Z,100495.66
2023-01-01T22:50:25.995Z,100492.34
2023-01-01T22:52:52.387Z,100494.00
2023-01-01T22:55:19.099Z,100489.31
2023-01-01T22:57:45.743Z,100490.66
2023-01-01T23:00:13.566Z,100483.06
2023-01-01T23:02:39.918Z,100487.31
2023-01-01T23:05:06.713Z,100495.53
2023-01-01T23:07:39.655Z,100495.84
2023-01-01T23:10:08.865Z,100494.72
2023-01-01T23:12:35.258Z,100491.13
2023-01-01T23:15:20.217Z,100485.47
2023-01-01T23:17:46.539Z,100476.88
2023-01-01T23:20:13.107Z,100474.22
2023-01-01T23:22:44.855Z,100490.59
2023-01-01T23:25:13.029Z,100485.81
2023-01-01T23:27:40.104Z,100484.97
2023-01-01T23:30:06.902Z,100478.81
2023-01-01T23:32:33.709Z,100474.78
2023-01-01T23:35:00.183Z,100471.75
2023-01-01T23:37:26.845Z,100467.03
2023-01-01T23:39:53.290Z,100470.16
2023-01-01T23:42:22.631Z,100456.56
2023-01-01T23:44:49.024Z,100454.06
2023-01-01T23:47:15.395Z,100455.13
2023-01-01T23:49:41.985Z,100454.38
2023-01-01T23:52:08.831Z,100466.84
2023-01-01T23:54:35.518Z,100475.38
2023-01-01T23:57:01.943Z,100465.31
2023-01-01T23:59:28.297Z,100463.31
